Time;durP1;ratioP1;P1;durP2;ratioP2;P2;SDS_P1;SDS_P2;PMS_P1;PMS_P2;Temp;Humidity;BMP_temperature;BMP_pressure;BME280_temperature;BME280_humidity;BME280_pressure;Samples;Min_cycle;Max_cycle;Signal;HPM_P1;HPM_P2
2022/01/13 00:00:09;;;;;;;21.33;11.35;;;;;;;;;;4996962;28;20030;-87
2022/01/13 00:02:57;;;;;;;22.33;12.52;;;;;;;;;;4997235;28;20098;-86
2022/01/13 00:06:16;;;;;;;23.15;12.82;;;;;;;;;;4936524;28;20026;-86
2022/01/13 00:09:05;;;;;;;22.20;12.10;;;;;;;;;;4953822;29;20050;-88
2022/01/13 00:11:31;;;;;;;20.17;11.98;;;;;;;;;;4941152;28;20050;-84
2022/01/13 00:14:42;;;;;;;21.42;12.88;;;;;;;;;;4979601;28;20190;-85
2022/01/13 00:17:24;;;;;;;27.60;13.45;;;;;;;;;;4978399;28;20034;-88
2022/01/13 00:20:10;;;;;;;22.27;12.48;;;;;;;;;;4978723;28;20117;-86
2022/01/13 00:25:03;;;;;;;27.70;11.88;;;;;;;;;;5005482;28;20101;-86
2022/01/13 00:27:30;;;;;;;29.02;12.75;;;;;;;;;;4999292;28;20030;-87
2022/01/13 00:29:59;;;;;;;22.77;12.35;;;;;;;;;;4983399;28;20496;-85
2022/01/13 00:32:27;;;;;;;25.35;12.45;;;;;;;;;;4996156;28;20156;-87
2022/01/13 00:34:53;;;;;;;25.88;13.02;;;;;;;;;;4994119;28;20023;-87
2022/01/13 00:37:18;;;;;;;22.27;13.25;;;;;;;;;;4998892;28;20026;-87
2022/01/13 00:39:44;;;;;;;22.73;12.50;;;;;;;;;;5003949;28;20022;-86
2022/01/13 00:42:09;;;;;;;20.08;10.95;;;;;;;;;;5000630;28;20503;-87
2022/01/13 00:44:37;;;;;;;24.50;12.50;;;;;;;;;;5015085;28;20026;-84
2022/01/13 00:47:05;;;;;;;22.15;12.43;;;;;;;;;;4998367;28;20026;-84
2022/01/13 00:49:30;;;;;;;23.55;12.80;;;;;;;;;;5002496;28;20042;-85
2022/01/13 00:51:56;;;;;;;20.45;11.93;;;;;;;;;;4999767;28;20021;-87
2022/01/13 00:54:22;;;;;;;23.80;11.95;;;;;;;;;;4992160;28;20022;-82
2022/01/13 00:56:47;;;;;;;23.65;12.65;;;;;;;;;;5030020;28;20044;-87
2022/01/13 00:59:14;;;;;;;20.48;12.25;;;;;;;;;;4998955;28;20098;-84
2022/01/13 01:01:51;;;;;;;21.63;13.45;;;;;;;;;;5015090;28;20033;-85
2022/01/13 01:04:17;;;;;;;25.55;12.73;;;;;;;;;;5003852;28;20033;-87
2022/01/13 01:06:44;;;;;;;26.48;13.18;;;;;;;;;;4993520;28;20045;-88
2022/01/13 01:09:14;;;;;;;20.48;12.05;;;;;;;;;;5016692;28;20030;-87
2022/01/13 01:11:41;;;;;;;26.13;13.38;;;;;;;;;;4999108;28;20049;-88
2022/01/13 01:14:08;;;;;;;25.40;13.45;;;;;;;;;;4989185;28;20030;-88
2022/01/13 01:16:36;;;;;;;27.73;12.90;;;;;;;;;;4985389;28;20057;-88
2022/01/13 01:19:06;;;;;;;23.40;12.77;;;;;;;;;;5017732;28;20029;-88
2022/01/13 01:21:48;;;;;;;23.27;13.60;;;;;;;;;;4997526;28;20124;-87
2022/01/13 01:26:49;;;;;;;26.63;13.93;;;;;;;;;;4996583;28;19948;-86
2022/01/13 01:35:40;;;;;;;26.15;12.88;;;;;;;;;;4961957;28;19925;-86
2022/01/13 01:55:00;;;;;;;25.73;13.25;;;;;;;;;;4924366;28;20602;-89
2022/01/13 01:57:26;;;;;;;22.88;13.07;;;;;;;;;;4992547;28;20018;-89
2022/01/13 01:59:53;;;;;;;27.65;14.40;;;;;;;;;;4999717;28;20511;-88
2022/01/13 02:02:20;;;;;;;31.05;14.98;;;;;;;;;;4994330;28;20498;-86
2022/01/13 02:04:46;;;;;;;22.50;11.05;;;;;;;;;;4999837;28;20424;-87
2022/01/13 02:07:13;;;;;;;30.70;16.58;;;;;;;;;;4999007;28;20515;-88
2022/01/13 02:09:41;;;;;;;28.48;13.73;;;;;;;;;;4980442;28;20030;-88
2022/01/13 02:12:11;;;;;;;28.75;14.55;;;;;;;;;;4999511;28;20026;-87
2022/01/13 02:14:50;;;;;;;33.97;16.58;;;;;;;;;;4984055;28;20133;-88
2022/01/13 02:17:23;;;;;;;33.47;17.65;;;;;;;;;;4997106;28;20022;-85
2022/01/13 02:19:52;;;;;;;26.63;15.60;;;;;;;;;;4998195;28;20026;-87
2022/01/13 02:22:17;;;;;;;33.20;17.63;;;;;;;;;;4997047;28;20024;-88
2022/01/13 02:24:42;;;;;;;32.25;17.25;;;;;;;;;;5016577;28;20073;-85
2022/01/13 02:27:08;;;;;;;29.13;15.88;;;;;;;;;;5001695;28;20040;-85
2022/01/13 02:29:34;;;;;;;30.35;16.15;;;;;;;;;;5017740;28;20034;-89
2022/01/13 02:32:00;;;;;;;27.63;14.43;;;;;;;;;;4998643;28;20034;-88
2022/01/13 02:34:26;;;;;;;31.95;16.38;;;;;;;;;;4997930;28;20031;-89
2022/01/13 02:36:56;;;;;;;30.25;15.82;;;;;;;;;;4998090;28;20030;-88
2022/01/13 02:39:23;;;;;;;33.33;17.98;;;;;;;;;;4986861;28;20026;-87
2022/01/13 02:41:49;;;;;;;32.45;17.73;;;;;;;;;;4988855;28;20073;-87
2022/01/13 02:44:18;;;;;;;30.85;15.13;;;;;;;;;;4985010;28;20022;-86
2022/01/13 02:49:17;;;;;;;;;;;;;;;;;;5006973;28;20468;-88
2022/01/13 02:51:46;;;;;;;25.55;12.20;;;;;;;;;;4984187;28;19909;-86
2022/01/13 02:54:12;;;;;;;30.65;16.30;;;;;;;;;;5007427;28;20044;-86
2022/01/13 02:56:38;;;;;;;34.33;16.63;;;;;;;;;;5000719;28;20030;-87
2022/01/13 02:59:05;;;;;;;34.92;17.65;;;;;;;;;;5003914;28;20511;-86
2022/01/13 03:01:31;;;;;;;29.13;16.42;;;;;;;;;;4994283;28;20477;-85
2022/01/13 03:03:57;;;;;;;31.35;15.93;;;;;;;;;;5002504;28;20098;-86
2022/01/13 03:06:31;;;;;;;29.00;15.80;;;;;;;;;;5000465;28;20023;-87
2022/01/13 03:08:57;;;;;;;31.20;17.38;;;;;;;;;;5004362;28;20039;-87
2022/01/13 03:11:30;;;;;;;30.25;16.42;;;;;;;;;;5003666;28;20038;-87
2022/01/13 03:13:55;;;;;;;26.63;11.25;;;;;;;;;;5003252;28;20126;-88
2022/01/13 03:16:20;;;;;;;32.63;15.85;;;;;;;;;;4996200;28;20110;-89
2022/01/13 03:18:46;;;;;;;26.25;13.48;;;;;;;;;;4995998;28;20030;-86
2022/01/13 03:21:11;;;;;;;28.60;15.10;;;;;;;;;;5014430;28;20455;-87
2022/01/13 03:23:37;;;;;;;28.92;15.65;;;;;;;;;;4998849;28;20411;-87
2022/01/13 03:26:03;;;;;;;40.83;17.58;;;;;;;;;;4989636;28;20018;-86
2022/01/13 03:28:30;;;;;;;40.78;18.15;;;;;;;;;;5005888;28;20077;-87
2022/01/13 03:31:00;;;;;;;26.10;13.48;;;;;;;;;;5005804;28;20026;-87
2022/01/13 03:33:25;;;;;;;35.63;18.17;;;;;;;;;;4994778;28;20041;-88
2022/01/13 03:35:51;;;;;;;33.78;18.40;;;;;;;;;;4976944;28;20101;-88
2022/01/13 03:38:16;;;;;;;35.13;17.52;;;;;;;;;;4994429;28;20022;-86
2022/01/13 03:40:42;;;;;;;20.55;11.90;;;;;;;;;;5008857;28;20036;-85
2022/01/13 03:43:08;;;;;;;33.83;18.30;;;;;;;;;;5013494;28;20053;-85
2022/01/13 03:45:33;;;;;;;35.22;15.88;;;;;;;;;;4998520;28;20026;-86
2022/01/13 03:48:00;;;;;;;31.40;16.67;;;;;;;;;;5010852;28;20026;-84
2022/01/13 03:50:25;;;;;;;31.48;17.10;;;;;;;;;;5018014;28;20048;-85
2022/01/13 03:53:39;;;;;;;23.10;11.02;;;;;;;;;;4999010;28;20477;-87
2022/01/13 03:56:58;;;;;;;30.27;15.98;;;;;;;;;;5004636;28;20034;-87
2022/01/13 04:00:09;;;;;;;34.15;15.13;;;;;;;;;;4927885;29;20031;-87
2022/01/13 04:02:35;;;;;;;29.38;16.20;;;;;;;;;;5009363;28;20065;-87
2022/01/13 04:05:00;;;;;;;29.98;13.80;;;;;;;;;;5010663;28;20030;-87
2022/01/13 04:07:26;;;;;;;31.17;17.33;;;;;;;;;;4976742;28;20073;-86
2022/01/13 04:10:40;;;;;;;38.13;17.85;;;;;;;;;;5011548;28;20076;-88
2022/01/13 04:13:11;;;;;;;33.08;15.90;;;;;;;;;;4959706;28;20066;-86
2022/01/13 04:15:46;;;;;;;40.72;19.17;;;;;;;;;;5002055;28;20022;-88
2022/01/13 04:18:11;;;;;;;37.65;19.30;;;;;;;;;;5015613;28;20113;-88
2022/01/13 04:20:37;;;;;;;35.63;18.05;;;;;;;;;;4990906;28;20060;-86
2022/01/13 04:23:02;;;;;;;28.55;17.20;;;;;;;;;;4981124;28;20068;-88
2022/01/13 04:25:29;;;;;;;30.42;15.70;;;;;;;;;;5009207;28;20018;-87
2022/01/13 04:28:01;;;;;;;28.83;15.98;;;;;;;;;;5018796;28;20037;-87
2022/01/13 04:30:44;;;;;;;32.13;15.85;;;;;;;;;;4987583;28;20028;-87
2022/01/13 04:33:09;;;;;;;30.38;14.77;;;;;;;;;;4982074;28;20030;-86
2022/01/13 04:35:34;;;;;;;26.13;14.00;;;;;;;;;;4995048;28;20033;-87
2022/01/13 04:38:00;;;;;;;36.13;16.35;;;;;;;;;;5005486;28;20026;-88
2022/01/13 04:40:26;;;;;;;33.03;15.75;;;;;;;;;;4994875;28;20388;-89
2022/01/13 04:42:55;;;;;;;27.10;15.30;;;;;;;;;;4999323;28;20524;-87
2022/01/13 04:45:21;;;;;;;30.35;15.75;;;;;;;;;;5007664;28;20018;-87
2022/01/13 04:47:48;;;;;;;32.08;14.82;;;;;;;;;;4989295;28;20025;-88
2022/01/13 04:50:13;;;;;;;29.73;15.55;;;;;;;;;;5019084;28;20025;-88
2022/01/13 04:52:39;;;;;;;31.50;15.23;;;;;;;;;;5013353;28;20374;-88
2022/01/13 04:55:10;;;;;;;31.73;15.95;;;;;;;;;;5003677;28;20104;-88
2022/01/13 04:57:35;;;;;;;27.88;15.23;;;;;;;;;;4986589;28;20507;-88
2022/01/13 05:00:06;;;;;;;24.38;13.48;;;;;;;;;;4981143;28;20026;-88
2022/01/13 05:02:32;;;;;;;24.63;13.65;;;;;;;;;;4983317;28;20034;-87
2022/01/13 05:04:57;;;;;;;25.17;14.23;;;;;;;;;;4983344;28;20069;-86
2022/01/13 05:07:22;;;;;;;20.73;10.82;;;;;;;;;;5015518;28;20040;-87
2022/01/13 05:09:47;;;;;;;38.75;17.38;;;;;;;;;;5021289;28;20018;-86
2022/01/13 05:12:13;;;;;;;26.10;14.60;;;;;;;;;;4998210;28;20026;-86
2022/01/13 05:14:38;;;;;;;29.15;14.70;;;;;;;;;;5006911;28;20026;-88
2022/01/13 05:17:11;;;;;;;25.00;13.60;;;;;;;;;;4999334;28;20026;-87
2022/01/13 05:19:46;;;;;;;27.50;14.38;;;;;;;;;;5001789;28;20081;-89
2022/01/13 05:24:37;;;;;;;26.40;13.80;;;;;;;;;;5009713;28;20094;-87
2022/01/13 05:27:03;;;;;;;31.25;15.63;;;;;;;;;;4987377;28;20023;-89
2022/01/13 05:29:28;;;;;;;28.98;14.30;;;;;;;;;;4997630;28;20109;-89
2022/01/13 05:31:54;;;;;;;28.42;15.73;;;;;;;;;;5012588;28;20049;-84
2022/01/13 05:34:19;;;;;;;21.02;11.43;;;;;;;;;;5014451;28;20026;-85
2022/01/13 05:36:44;;;;;;;31.77;14.32;;;;;;;;;;4997524;28;20034;-87
2022/01/13 05:39:11;;;;;;;25.02;13.63;;;;;;;;;;5011257;28;20022;-87
2022/01/13 05:41:37;;;;;;;29.58;15.15;;;;;;;;;;5000839;28;20036;-89
2022/01/13 05:44:02;;;;;;;30.05;14.95;;;;;;;;;;5009921;28;20050;-89
2022/01/13 05:46:28;;;;;;;26.17;15.27;;;;;;;;;;4999842;28;20014;-86
2022/01/13 05:48:54;;;;;;;33.72;12.82;;;;;;;;;;5015581;28;20022;-86
2022/01/13 05:51:20;;;;;;;27.35;15.32;;;;;;;;;;5033765;28;20515;-86
2022/01/13 05:53:46;;;;;;;24.95;13.35;;;;;;;;;;5008389;28;20044;-85
2022/01/13 05:56:12;;;;;;;27.77;13.85;;;;;;;;;;5007092;28;20076;-86
2022/01/13 05:58:38;;;;;;;23.35;14.00;;;;;;;;;;4998183;28;20030;-86
2022/01/13 06:01:03;;;;;;;28.90;15.27;;;;;;;;;;4996037;28;20026;-87
2022/01/13 06:03:28;;;;;;;29.13;14.55;;;;;;;;;;4995404;28;20044;-87
2022/01/13 06:05:54;;;;;;;26.55;14.60;;;;;;;;;;4995760;28;20019;-85
2022/01/13 06:08:19;;;;;;;31.13;15.30;;;;;;;;;;4978183;28;20546;-87
2022/01/13 06:10:46;;;;;;;28.88;14.60;;;;;;;;;;4996366;28;20037;-87
2022/01/13 06:13:13;;;;;;;25.50;15.68;;;;;;;;;;4978728;28;20018;-85
2022/01/13 06:15:38;;;;;;;27.58;14.57;;;;;;;;;;4995591;28;20042;-86
2022/01/13 06:18:09;;;;;;;27.98;14.95;;;;;;;;;;4996683;28;20547;-86
2022/01/13 06:20:35;;;;;;;26.45;14.20;;;;;;;;;;4995491;28;20600;-86
2022/01/13 06:23:02;;;;;;;30.95;13.93;;;;;;;;;;4987678;28;20030;-86
2022/01/13 06:25:27;;;;;;;27.52;14.90;;;;;;;;;;5000966;28;20416;-84
2022/01/13 06:27:53;;;;;;;27.75;14.07;;;;;;;;;;5003042;28;20034;-87
2022/01/13 06:30:18;;;;;;;32.15;14.35;;;;;;;;;;5005539;28;20034;-86
2022/01/13 06:32:46;;;;;;;28.45;15.32;;;;;;;;;;4994284;28;20021;-84
2022/01/13 06:35:12;;;;;;;28.20;14.77;;;;;;;;;;4987147;28;1128050;-87
2022/01/13 06:37:40;;;;;;;35.28;15.18;;;;;;;;;;5007677;28;20034;-87
2022/01/13 06:40:07;;;;;;;24.17;12.38;;;;;;;;;;4986078;28;20027;-84
2022/01/13 06:42:32;;;;;;;27.95;14.43;;;;;;;;;;4986439;28;20026;-86
2022/01/13 06:44:58;;;;;;;28.25;14.38;;;;;;;;;;5012901;28;20090;-88
2022/01/13 06:47:23;;;;;;;24.08;14.63;;;;;;;;;;5012234;28;20038;-86
2022/01/13 06:49:48;;;;;;;25.75;13.85;;;;;;;;;;4994415;28;20022;-85
2022/01/13 06:52:14;;;;;;;23.38;14.77;;;;;;;;;;5004289;28;20022;-88
2022/01/13 06:54:39;;;;;;;30.15;13.68;;;;;;;;;;4992214;28;20023;-88
2022/01/13 06:57:05;;;;;;;26.63;13.23;;;;;;;;;;5001389;28;20036;-86
2022/01/13 06:59:30;;;;;;;22.50;12.43;;;;;;;;;;5003968;28;20030;-88
2022/01/13 07:01:59;;;;;;;23.75;12.02;;;;;;;;;;5003293;28;20030;-88
2022/01/13 07:04:24;;;;;;;28.90;14.40;;;;;;;;;;5023102;28;20028;-88
2022/01/13 07:06:50;;;;;;;25.75;14.18;;;;;;;;;;5023048;28;20101;-87
2022/01/13 07:09:17;;;;;;;26.45;14.20;;;;;;;;;;5004913;28;20120;-87
2022/01/13 07:11:43;;;;;;;27.95;14.27;;;;;;;;;;5004126;28;20030;-87
2022/01/13 07:14:09;;;;;;;24.65;14.48;;;;;;;;;;5013802;28;20022;-88
2022/01/13 07:16:35;;;;;;;28.85;14.05;;;;;;;;;;4981294;28;20089;-85
2022/01/13 07:19:04;;;;;;;27.13;14.55;;;;;;;;;;4993182;28;20068;-86
2022/01/13 07:21:30;;;;;;;24.23;13.10;;;;;;;;;;4982252;28;20096;-86
2022/01/13 07:23:56;;;;;;;30.65;15.02;;;;;;;;;;4980282;28;20681;-88
2022/01/13 07:26:21;;;;;;;19.70;11.55;;;;;;;;;;4999720;28;20018;-89
2022/01/13 07:28:47;;;;;;;26.05;14.38;;;;;;;;;;4994387;28;20053;-88
2022/01/13 07:31:14;;;;;;;26.17;14.15;;;;;;;;;;4998568;28;20054;-88
2022/01/13 07:33:44;;;;;;;27.73;14.60;;;;;;;;;;4986488;28;20057;-89
2022/01/13 07:36:10;;;;;;;29.83;14.75;;;;;;;;;;4981450;28;20049;-87
2022/01/13 07:38:35;;;;;;;32.28;15.27;;;;;;;;;;4997984;28;20029;-88
2022/01/13 07:41:00;;;;;;;29.45;15.70;;;;;;;;;;5004839;28;20030;-89
2022/01/13 07:43:26;;;;;;;32.22;15.10;;;;;;;;;;4978215;28;20037;-89
2022/01/13 07:45:53;;;;;;;34.50;15.35;;;;;;;;;;4994515;28;20113;-88
2022/01/13 07:48:19;;;;;;;28.55;14.45;;;;;;;;;;4996244;28;20029;-89
2022/01/13 07:50:45;;;;;;;31.75;15.10;;;;;;;;;;4996039;28;20026;-89
2022/01/13 07:53:10;;;;;;;28.77;13.95;;;;;;;;;;4999544;28;20025;-87
2022/01/13 07:55:36;;;;;;;30.50;15.35;;;;;;;;;;5008422;28;20026;-87
2022/01/13 07:58:01;;;;;;;29.63;15.68;;;;;;;;;;4993475;28;20030;-88
2022/01/13 08:00:27;;;;;;;31.42;15.02;;;;;;;;;;4983014;28;20080;-88
2022/01/13 08:02:53;;;;;;;32.90;15.52;;;;;;;;;;5001842;28;20030;-85
2022/01/13 08:05:18;;;;;;;28.08;15.55;;;;;;;;;;4999210;28;20022;-86
2022/01/13 08:07:43;;;;;;;32.58;15.32;;;;;;;;;;4999234;28;20045;-86
2022/01/13 08:10:10;;;;;;;30.00;15.13;;;;;;;;;;5000299;28;20089;-85
2022/01/13 08:12:36;;;;;;;30.65;14.18;;;;;;;;;;4999413;28;20022;-85
2022/01/13 08:15:02;;;;;;;28.25;15.07;;;;;;;;;;5000700;28;20024;-86
2022/01/13 08:20:11;;;;;;;37.25;14.35;;;;;;;;;;5000707;28;20029;-86
2022/01/13 08:22:36;;;;;;;32.63;15.70;;;;;;;;;;4983650;28;20019;-84
2022/01/13 08:25:02;;;;;;;29.80;15.50;;;;;;;;;;5011924;28;20040;-85
2022/01/13 08:27:27;;;;;;;41.72;16.15;;;;;;;;;;4997448;28;20118;-85
2022/01/13 08:29:53;;;;;;;29.25;15.60;;;;;;;;;;4981559;28;20029;-85
2022/01/13 08:32:18;;;;;;;31.52;15.20;;;;;;;;;;5000826;28;20030;-86
2022/01/13 08:34:45;;;;;;;31.75;13.45;;;;;;;;;;4982241;28;20027;-85
2022/01/13 08:37:10;;;;;;;32.67;14.52;;;;;;;;;;4995012;28;20164;-86
2022/01/13 08:39:42;;;;;;;30.70;15.30;;;;;;;;;;4994010;28;20073;-86
2022/01/13 08:42:08;;;;;;;29.17;12.35;;;;;;;;;;4990328;28;20031;-86
2022/01/13 08:44:33;;;;;;;25.20;14.23;;;;;;;;;;4992345;28;20038;-85
2022/01/13 08:47:02;;;;;;;29.08;13.82;;;;;;;;;;4994998;28;20547;-83
2022/01/13 08:49:28;;;;;;;26.80;13.05;;;;;;;;;;4997966;28;20022;-86
2022/01/13 08:51:55;;;;;;;25.90;13.13;;;;;;;;;;4993311;28;20025;-86
2022/01/13 08:54:21;;;;;;;27.17;15.00;;;;;;;;;;4997122;28;20034;-84
2022/01/13 08:56:47;;;;;;;28.42;14.18;;;;;;;;;;5001363;28;20076;-85
2022/01/13 08:59:13;;;;;;;22.63;12.27;;;;;;;;;;4996962;28;20041;-84
2022/01/13 09:01:38;;;;;;;24.20;13.05;;;;;;;;;;4980892;28;20018;-85
2022/01/13 09:04:04;;;;;;;24.13;11.43;;;;;;;;;;4998175;28;20038;-87
2022/01/13 09:06:29;;;;;;;24.40;13.65;;;;;;;;;;4995385;28;20046;-87
2022/01/13 09:08:55;;;;;;;23.85;13.02;;;;;;;;;;5003086;28;20038;-86
2022/01/13 09:11:20;;;;;;;19.27;11.43;;;;;;;;;;4995052;28;20033;-87
2022/01/13 09:13:46;;;;;;;24.83;11.82;;;;;;;;;;5004072;28;20479;-84
2022/01/13 09:16:16;;;;;;;22.85;11.68;;;;;;;;;;4988356;28;20026;-86
2022/01/13 09:21:25;;;;;;;23.83;10.70;;;;;;;;;;4999908;28;20033;-85
2022/01/13 09:23:50;;;;;;;17.38;11.07;;;;;;;;;;5006335;28;20503;-86
2022/01/13 09:26:16;;;;;;;17.30;8.52;;;;;;;;;;4996058;28;20024;-86
2022/01/13 09:28:41;;;;;;;17.20;9.10;;;;;;;;;;4999678;28;20023;-86
2022/01/13 09:31:07;;;;;;;15.70;7.95;;;;;;;;;;4999263;28;20058;-86
2022/01/13 09:33:34;;;;;;;14.20;8.52;;;;;;;;;;4983232;28;20026;-87
2022/01/13 09:36:00;;;;;;;17.65;9.38;;;;;;;;;;4985791;28;20027;-87
2022/01/13 09:38:26;;;;;;;17.55;10.07;;;;;;;;;;5000055;28;20049;-85
2022/01/13 09:40:53;;;;;;;22.50;9.90;;;;;;;;;;4998322;28;20395;-86
2022/01/13 09:43:24;;;;;;;21.00;10.60;;;;;;;;;;4981986;28;20030;-86
2022/01/13 09:45:50;;;;;;;19.45;9.45;;;;;;;;;;4996154;28;20026;-85
2022/01/13 09:48:16;;;;;;;20.52;10.55;;;;;;;;;;4998959;28;20022;-86
2022/01/13 09:50:45;;;;;;;20.92;9.45;;;;;;;;;;4999501;28;20092;-87
2022/01/13 09:53:12;;;;;;;16.33;9.02;;;;;;;;;;5001646;28;20085;-86
2022/01/13 09:55:38;;;;;;;18.17;10.30;;;;;;;;;;5002830;28;20035;-86
2022/01/13 09:58:10;;;;;;;19.20;10.25;;;;;;;;;;4993550;28;20102;-87
2022/01/13 10:00:39;;;;;;;18.90;9.02;;;;;;;;;;4998692;28;20030;-87
2022/01/13 10:03:13;;;;;;;18.15;10.02;;;;;;;;;;5009558;28;20066;-87
2022/01/13 10:05:56;;;;;;;16.83;9.45;;;;;;;;;;5003946;28;20022;-86
2022/01/13 10:08:40;;;;;;;17.05;9.10;;;;;;;;;;5003508;28;20018;-87
2022/01/13 10:11:25;;;;;;;14.90;8.50;;;;;;;;;;5002444;28;20045;-87
2022/01/13 10:14:04;;;;;;;20.83;8.52;;;;;;;;;;4982098;28;20027;-88
2022/01/13 10:16:29;;;;;;;14.90;7.68;;;;;;;;;;4996635;28;20023;-86
2022/01/13 10:18:55;;;;;;;13.35;6.70;;;;;;;;;;4998788;28;20026;-86
2022/01/13 10:21:21;;;;;;;15.60;7.65;;;;;;;;;;5005168;28;20636;-86
2022/01/13 10:24:09;;;;;;;15.73;8.43;;;;;;;;;;4999549;28;20564;-86
2022/01/13 10:26:36;;;;;;;19.25;9.68;;;;;;;;;;5005444;28;20062;-88
2022/01/13 10:29:04;;;;;;;16.10;9.15;;;;;;;;;;5022036;28;20011;-87
2022/01/13 10:32:02;;;;;;;15.65;8.88;;;;;;;;;;5019084;28;20076;-87
2022/01/13 10:34:28;;;;;;;10.63;6.70;;;;;;;;;;4959642;28;20081;-87
2022/01/13 10:37:10;;;;;;;15.57;8.68;;;;;;;;;;5020380;28;20053;-86
2022/01/13 10:39:56;;;;;;;13.90;8.15;;;;;;;;;;5001968;28;20010;-87
2022/01/13 10:45:17;;;;;;;15.75;9.82;;;;;;;;;;5021534;28;20039;-87
2022/01/13 10:48:15;;;;;;;16.27;9.55;;;;;;;;;;5001715;28;20049;-88
2022/01/13 10:50:47;;;;;;;16.38;8.85;;;;;;;;;;4992848;28;20105;-87
2022/01/13 10:53:19;;;;;;;18.85;10.30;;;;;;;;;;5004516;28;20031;-87
2022/01/13 10:55:52;;;;;;;19.77;9.15;;;;;;;;;;5018222;28;20025;-86
2022/01/13 10:58:23;;;;;;;9.32;5.68;;;;;;;;;;5022274;28;20118;-84
2022/01/13 11:00:51;;;;;;;17.02;9.20;;;;;;;;;;5017315;28;20045;-87
2022/01/13 11:03:19;;;;;;;13.85;8.13;;;;;;;;;;4998211;28;20044;-83
2022/01/13 11:05:55;;;;;;;17.00;9.32;;;;;;;;;;4999119;28;20022;-85
2022/01/13 11:08:25;;;;;;;16.33;7.50;;;;;;;;;;5000766;28;20084;-86
2022/01/13 11:10:53;;;;;;;16.65;8.45;;;;;;;;;;4986323;28;20496;-85
2022/01/13 11:13:20;;;;;;;14.20;7.57;;;;;;;;;;5004270;28;20110;-87
2022/01/13 11:15:50;;;;;;;15.45;8.30;;;;;;;;;;4987183;28;20026;-87
2022/01/13 11:18:19;;;;;;;16.42;8.88;;;;;;;;;;5001386;28;20044;-83
2022/01/13 11:20:45;;;;;;;14.80;7.60;;;;;;;;;;4995321;28;20488;-85
2022/01/13 11:23:11;;;;;;;17.58;9.60;;;;;;;;;;4996690;28;20479;-84
2022/01/13 11:25:37;;;;;;;17.10;9.38;;;;;;;;;;4976090;28;20049;-84
2022/01/13 11:28:07;;;;;;;18.15;10.43;;;;;;;;;;4992660;28;20034;-85
2022/01/13 11:30:32;;;;;;;16.73;9.60;;;;;;;;;;4997578;28;20022;-83
2022/01/13 11:32:58;;;;;;;18.58;10.20;;;;;;;;;;4998428;28;20030;-87
2022/01/13 11:35:27;;;;;;;19.70;10.23;;;;;;;;;;5004351;28;20030;-85
2022/01/13 11:37:56;;;;;;;15.45;9.88;;;;;;;;;;4999743;28;20486;-86
2022/01/13 11:40:27;;;;;;;17.60;8.75;;;;;;;;;;4998066;28;20022;-84
2022/01/13 11:42:54;;;;;;;16.73;9.05;;;;;;;;;;4999599;28;20022;-86
2022/01/13 11:45:20;;;;;;;17.25;10.18;;;;;;;;;;4999815;28;20052;-83
2022/01/13 11:47:47;;;;;;;20.58;10.02;;;;;;;;;;5000108;28;20014;-84
2022/01/13 11:50:20;;;;;;;16.98;9.07;;;;;;;;;;5000427;28;20026;-85
2022/01/13 11:52:52;;;;;;;25.52;9.68;;;;;;;;;;4995422;28;20019;-85
2022/01/13 11:55:41;;;;;;;16.10;9.15;;;;;;;;;;4997180;28;20022;-84
2022/01/13 11:58:40;;;;;;;16.65;8.32;;;;;;;;;;4996370;28;20038;-85
2022/01/13 12:01:18;;;;;;;15.85;8.75;;;;;;;;;;4963840;28;20057;-85
2022/01/13 12:03:48;;;;;;;14.70;9.45;;;;;;;;;;4998103;28;20026;-83
2022/01/13 12:06:32;;;;;;;15.52;9.65;;;;;;;;;;4999076;28;20026;-86
2022/01/13 12:08:58;;;;;;;20.40;10.27;;;;;;;;;;5006398;28;20030;-84
2022/01/13 12:11:39;;;;;;;17.58;9.60;;;;;;;;;;4998413;28;20027;-85
2022/01/13 12:14:37;;;;;;;16.63;9.15;;;;;;;;;;4997066;28;20035;-85
2022/01/13 12:17:24;;;;;;;16.90;8.95;;;;;;;;;;4993081;28;20039;-83
2022/01/13 12:19:51;;;;;;;16.38;10.18;;;;;;;;;;4999234;28;20038;-86
2022/01/13 12:22:41;;;;;;;20.42;9.40;;;;;;;;;;4998855;28;20022;-85
2022/01/13 12:25:11;;;;;;;17.90;9.60;;;;;;;;;;4996807;28;20096;-84
2022/01/13 12:27:37;;;;;;;17.02;9.82;;;;;;;;;;4997227;28;20027;-85
2022/01/13 12:30:02;;;;;;;18.13;10.57;;;;;;;;;;4999522;28;20027;-84
2022/01/13 12:32:42;;;;;;;21.65;10.20;;;;;;;;;;4998842;28;20022;-85
2022/01/13 12:35:10;;;;;;;18.58;10.30;;;;;;;;;;4998222;28;20026;-84
2022/01/13 12:37:39;;;;;;;18.30;9.63;;;;;;;;;;4999139;28;20091;-85
2022/01/13 12:40:19;;;;;;;12.95;8.43;;;;;;;;;;5007803;28;20377;-85
2022/01/13 12:42:51;;;;;;;17.63;9.73;;;;;;;;;;5002347;28;20018;-83
2022/01/13 12:45:29;;;;;;;16.00;8.88;;;;;;;;;;4992462;28;20101;-83
2022/01/13 12:48:06;;;;;;;15.00;9.65;;;;;;;;;;4993812;28;20042;-84
2022/01/13 12:50:37;;;;;;;16.70;9.02;;;;;;;;;;4992753;28;20032;-84
2022/01/13 12:53:30;;;;;;;15.33;9.17;;;;;;;;;;4998577;28;20097;-86
2022/01/13 12:56:00;;;;;;;16.05;9.07;;;;;;;;;;4996667;28;20045;-81
2022/01/13 12:58:29;;;;;;;15.63;8.90;;;;;;;;;;4984069;28;20076;-84
2022/01/13 13:01:02;;;;;;;13.88;8.85;;;;;;;;;;4998387;28;20030;-82
2022/01/13 13:03:31;;;;;;;15.55;9.18;;;;;;;;;;4997306;28;20033;-82
2022/01/13 13:05:57;;;;;;;15.27;8.55;;;;;;;;;;4990292;28;20034;-85
2022/01/13 13:08:25;;;;;;;15.95;9.35;;;;;;;;;;4997713;28;20056;-82
2022/01/13 13:11:00;;;;;;;18.20;8.88;;;;;;;;;;4981240;28;20057;-84
2022/01/13 13:13:27;;;;;;;14.25;9.00;;;;;;;;;;4997915;28;20030;-84
2022/01/13 13:15:59;;;;;;;18.88;8.82;;;;;;;;;;4998811;28;20155;-84
2022/01/13 13:18:28;;;;;;;14.70;8.07;;;;;;;;;;4979687;28;20034;-84
2022/01/13 13:20:54;;;;;;;13.95;8.40;;;;;;;;;;4997650;28;20037;-82
2022/01/13 13:23:31;;;;;;;13.13;8.15;;;;;;;;;;4995084;28;20015;-84
2022/01/13 13:25:58;;;;;;;13.48;8.20;;;;;;;;;;5013805;28;20037;-83
2022/01/13 13:28:25;;;;;;;12.00;7.57;;;;;;;;;;4980248;28;20056;-83
2022/01/13 13:31:01;;;;;;;14.75;7.40;;;;;;;;;;4996834;28;20033;-84
2022/01/13 13:33:32;;;;;;;14.27;7.80;;;;;;;;;;4995596;28;20022;-85
2022/01/13 13:35:59;;;;;;;13.90;8.27;;;;;;;;;;4991768;28;20057;-85
2022/01/13 13:38:25;;;;;;;18.38;8.35;;;;;;;;;;4979566;28;20029;-85
2022/01/13 13:40:50;;;;;;;14.25;8.45;;;;;;;;;;4979560;28;20018;-84
2022/01/13 13:43:16;;;;;;;15.70;8.60;;;;;;;;;;4996816;28;20022;-84
2022/01/13 13:45:41;;;;;;;11.68;7.35;;;;;;;;;;5004885;28;20056;-86
2022/01/13 13:48:07;;;;;;;15.95;6.97;;;;;;;;;;4996864;28;20057;-85
2022/01/13 13:50:33;;;;;;;14.40;8.05;;;;;;;;;;4992658;28;20053;-85
2022/01/13 13:53:12;;;;;;;16.75;8.23;;;;;;;;;;4996774;28;20125;-83
2022/01/13 13:55:39;;;;;;;20.23;8.18;;;;;;;;;;5001199;28;20475;-85
2022/01/13 13:58:06;;;;;;;12.65;7.65;;;;;;;;;;4994470;28;20042;-85
2022/01/13 14:00:32;;;;;;;15.65;8.23;;;;;;;;;;4997856;28;20039;-85
2022/01/13 14:02:59;;;;;;;14.38;7.55;;;;;;;;;;4995395;28;20568;-85
2022/01/13 14:05:38;;;;;;;15.57;8.50;;;;;;;;;;4984076;28;20118;-85
2022/01/13 14:08:06;;;;;;;19.80;7.35;;;;;;;;;;4993166;28;20039;-87
2022/01/13 14:10:32;;;;;;;12.93;7.95;;;;;;;;;;4979360;28;20033;-87
2022/01/13 14:13:08;;;;;;;13.32;7.20;;;;;;;;;;4998817;28;20022;-86
2022/01/13 14:15:38;;;;;;;13.02;7.60;;;;;;;;;;5005077;28;20037;-84
2022/01/13 14:18:15;;;;;;;15.85;8.48;;;;;;;;;;4999604;28;20030;-85
2022/01/13 14:20:44;;;;;;;16.50;9.43;;;;;;;;;;4985108;28;20032;-83
2022/01/13 14:23:27;;;;;;;17.05;8.73;;;;;;;;;;4998640;28;20089;-85
2022/01/13 14:26:08;;;;;;;16.58;8.95;;;;;;;;;;5005828;28;20072;-85
2022/01/13 14:28:35;;;;;;;17.75;9.13;;;;;;;;;;4993174;28;20054;-84
2022/01/13 14:31:09;;;;;;;19.55;9.23;;;;;;;;;;4996400;28;20022;-85
2022/01/13 14:33:43;;;;;;;15.18;7.35;;;;;;;;;;4992329;28;20109;-84
2022/01/13 14:36:25;;;;;;;15.05;8.18;;;;;;;;;;4997349;28;21910;-85
2022/01/13 14:38:57;;;;;;;;;;;;;;;;;;4995670;28;20029;-85
2022/01/13 14:41:33;;;;;;;17.70;8.52;;;;;;;;;;4996182;28;19917;-85
2022/01/13 14:44:20;;;;;;;15.35;8.40;;;;;;;;;;4997243;28;20117;-86
2022/01/13 14:46:51;;;;;;;15.90;8.82;;;;;;;;;;4979181;28;20015;-84
2022/01/13 14:49:18;;;;;;;18.40;10.15;;;;;;;;;;4993624;28;20030;-85
2022/01/13 14:51:47;;;;;;;18.15;9.82;;;;;;;;;;4996220;28;20054;-85
2022/01/13 14:54:14;;;;;;;15.55;8.75;;;;;;;;;;4979198;28;20026;-86
2022/01/13 14:56:39;;;;;;;15.35;8.85;;;;;;;;;;5004209;28;20022;-86
2022/01/13 14:59:05;;;;;;;18.48;9.15;;;;;;;;;;4988587;28;20060;-85
2022/01/13 15:01:31;;;;;;;20.33;10.38;;;;;;;;;;4973991;28;20041;-86
2022/01/13 15:03:57;;;;;;;15.23;9.30;;;;;;;;;;4977638;28;20101;-85
2022/01/13 15:06:23;;;;;;;20.45;10.77;;;;;;;;;;4996119;28;20042;-86
2022/01/13 15:08:49;;;;;;;21.27;10.05;;;;;;;;;;4994875;28;20041;-86
2022/01/13 15:11:15;;;;;;;16.95;10.00;;;;;;;;;;4986910;28;20023;-86
2022/01/13 15:13:42;;;;;;;21.10;11.13;;;;;;;;;;4994251;28;20037;-85
2022/01/13 15:16:08;;;;;;;18.85;10.80;;;;;;;;;;4997165;28;20026;-84